createdAt,value
2022-08-28T00:00:30.892Z,18.52
2022-08-28T00:02:58.056Z,18.46
2022-08-28T00:05:27.534Z,18.34
2022-08-28T00:07:54.175Z,18.30
2022-08-28T00:10:22.572Z,18.20
2022-08-28T00:12:50.621Z,18.19
2022-08-28T00:15:27.393Z,18.14
2022-08-28T00:17:55.157Z,18.24
2022-08-28T00:20:23.211Z,18.21
2022-08-28T00:22:49.997Z,18.23
2022-08-28T00:25:18.073Z,18.25
2022-08-28T00:27:53.478Z,18.23
2022-08-28T00:30:34.164Z,18.24
2022-08-28T00:33:13.842Z,18.22
2022-08-28T00:35:42.170Z,18.15
2022-08-28T00:38:10.513Z,18.15
2022-08-28T00:40:38.977Z,18.17
2022-08-28T00:43:08.054Z,18.12
2022-08-28T00:45:39.544Z,17.86
2022-08-28T00:48:06.933Z,17.99
2022-08-28T00:50:59.084Z,17.99
2022-08-28T00:53:32.787Z,17.90
2022-08-28T00:56:04.082Z,17.89
2022-08-28T00:58:33.958Z,17.73
2022-08-28T01:01:00.717Z,17.71
2022-08-28T01:03:28.432Z,17.75
2022-08-28T01:05:55.581Z,17.68
2022-08-28T01:08:22.937Z,17.68
2022-08-28T01:10:54.166Z,17.66
2022-08-28T01:13:24.182Z,17.57
2022-08-28T01:15:51.442Z,17.67
2022-08-28T01:18:19.508Z,17.65
2022-08-28T01:21:20.111Z,17.50
2022-08-28T01:23:58.121Z,17.56
2022-08-28T01:26:27.760Z,17.48
2022-08-28T01:28:55.644Z,17.32
2022-08-28T01:31:22.298Z,17.19
2022-08-28T01:33:49.016Z,17.19
2022-08-28T01:36:15.785Z,17.16
2022-08-28T01:38:45.512Z,17.16
2022-08-28T01:41:14.069Z,17.26
2022-08-28T01:43:41.729Z,17.30
2022-08-28T01:46:09.999Z,17.31
2022-08-28T01:48:39.502Z,17.35
2022-08-28T01:51:07.124Z,17.31
2022-08-28T01:53:34.558Z,17.27
2022-08-28T01:56:05.599Z,17.27
2022-08-28T01:58:37.448Z,17.34
2022-08-28T02:01:10.613Z,17.28
2022-08-28T02:03:37.230Z,17.42
2022-08-28T02:06:04.041Z,17.38
2022-08-28T02:08:30.571Z,17.30
2022-08-28T02:10:57.116Z,17.17
2022-08-28T02:13:25.673Z,17.13
2022-08-28T02:15:52.460Z,17.13
2022-08-28T02:18:19.038Z,17.12
2022-08-28T02:20:46.618Z,17.15
2022-08-28T02:23:13.848Z,17.10
2022-08-28T02:25:40.394Z,16.94
2022-08-28T02:28:06.937Z,16.80
2022-08-28T02:30:33.731Z,16.79
2022-08-28T02:33:00.312Z,16.94
2022-08-28T02:35:26.942Z,16.99
2022-08-28T02:37:54.620Z,16.93
2022-08-28T02:40:23.657Z,16.96
2022-08-28T02:42:51.133Z,16.88
2022-08-28T02:45:19.592Z,16.95
2022-08-28T02:47:47.910Z,16.94
2022-08-28T02:50:17.664Z,17.07
2022-08-28T02:52:44.406Z,16.94
2022-08-28T02:55:13.220Z,16.86
2022-08-28T02:57:39.829Z,16.88
2022-08-28T03:00:10.006Z,16.84
2022-08-28T03:02:36.873Z,16.78
2022-08-28T03:05:04.591Z,16.87
2022-08-28T03:07:31.126Z,16.73
2022-08-28T03:09:57.639Z,16.80
2022-08-28T03:12:24.399Z,16.75
2022-08-28T03:14:54.970Z,16.68
2022-08-28T03:17:22.181Z,16.65
2022-08-28T03:19:50.166Z,16.68
2022-08-28T03:22:17.875Z,16.67
2022-08-28T03:24:45.035Z,16.52
2022-08-28T03:27:11.718Z,16.54
2022-08-28T03:29:38.356Z,16.50
2022-08-28T03:32:05.025Z,16.49
2022-08-28T03:34:31.511Z,16.51
2022-08-28T03:36:58.201Z,16.49
2022-08-28T03:39:24.735Z,16.52
2022-08-28T03:41:51.539Z,16.52
2022-08-28T03:44:18.458Z,16.44
2022-08-28T03:46:44.961Z,16.56
2022-08-28T03:49:11.530Z,16.48
2022-08-28T03:51:38.441Z,16.45
2022-08-28T03:54:05.434Z,16.35
2022-08-28T03:56:32.373Z,16.43
2022-08-28T03:59:02.057Z,16.22
2022-08-28T04:01:29.330Z,16.32
2022-08-28T04:03:56.417Z,16.35
2022-08-28T04:06:23.032Z,16.16
2022-08-28T04:08:51.010Z,16.03
2022-08-28T04:11:18.273Z,16.08
2022-08-28T04:13:45.214Z,15.93
2022-08-28T04:16:14.308Z,16.04
2022-08-28T04:18:43.154Z,15.92
2022-08-28T04:21:12.971Z,16.01
2022-08-28T04:23:43.154Z,15.93
2022-08-28T04:26:15.397Z,15.92
2022-08-28T04:28:42.747Z,16.08
2022-08-28T04:31:09.878Z,16.14
2022-08-28T04:33:37.556Z,16.13
2022-08-28T04:36:09.775Z,16.03
2022-08-28T04:38:43.480Z,16.17
2022-08-28T04:41:14.032Z,16.15
2022-08-28T04:43:40.908Z,16.20
2022-08-28T04:46:11.322Z,16.11
2022-08-28T04:48:39.689Z,16.10
2022-08-28T04:51:09.429Z,16.08
2022-08-28T04:53:37.487Z,16.05
2022-08-28T04:56:09.661Z,16.00
2022-08-28T04:58:37.296Z,16.14
2022-08-28T05:01:11.413Z,16.14
2022-08-28T05:03:38.202Z,16.16
2022-08-28T05:06:05.371Z,16.20
2022-08-28T05:08:32.864Z,16.22
2022-08-28T05:11:13.757Z,16.16
2022-08-28T05:13:57.362Z,16.12
2022-08-28T05:16:24.196Z,16.14
2022-08-28T05:18:50.817Z,16.02
2022-08-28T05:21:21.701Z,16.04
2022-08-28T05:23:56.531Z,16.21
2022-08-28T05:26:23.593Z,16.20
2022-08-28T05:28:56.324Z,16.19
2022-08-28T05:31:24.179Z,16.20
2022-08-28T05:33:51.936Z,16.23
2022-08-28T05:36:22.845Z,16.20
2022-08-28T05:38:50.543Z,16.30
2022-08-28T05:41:22.724Z,16.36
2022-08-28T05:43:49.780Z,16.40
2022-08-28T05:46:17.438Z,16.38
2022-08-28T05:48:45.647Z,16.23
2022-08-28T05:51:15.681Z,16.15
2022-08-28T05:53:44.062Z,16.39
2022-08-28T05:56:14.394Z,16.43
2022-08-28T05:58:41.276Z,16.38
2022-08-28T06:01:09.739Z,16.35
2022-08-28T06:03:37.713Z,16.35
2022-08-28T06:06:05.304Z,16.52
2022-08-28T06:08:32.209Z,16.72
2022-08-28T06:10:59.675Z,16.64
2022-08-28T06:13:26.552Z,16.80
2022-08-28T06:15:53.643Z,16.77
2022-08-28T06:18:20.326Z,16.78
2022-08-28T06:20:47.749Z,16.79
2022-08-28T06:23:21.360Z,16.80
2022-08-28T06:25:51.845Z,16.72
2022-08-28T06:28:24.185Z,16.83
2022-08-28T06:31:15.750Z,16.88
2022-08-28T06:33:38.708Z,17.02
2022-08-28T06:36:05.851Z,17.34
2022-08-28T06:38:32.499Z,17.20
2022-08-28T06:41:00.017Z,17.19
2022-08-28T06:43:29.104Z,17.28
2022-08-28T06:45:57.544Z,17.24
2022-08-28T06:48:27.808Z,17.31
2022-08-28T06:50:56.173Z,17.27
2022-08-28T06:53:30.762Z,17.28
2022-08-28T06:56:09.383Z,17.40
2022-08-28T06:58:40.730Z,17.46
2022-08-28T07:01:17.936Z,17.66
2022-08-28T07:03:46.153Z,17.60
2022-08-28T07:06:14.097Z,17.64
2022-08-28T07:08:42.736Z,17.83
2022-08-28T07:11:17.567Z,17.89
2022-08-28T07:13:45.261Z,17.88
2022-08-28T07:16:14.061Z,18.11
2022-08-28T07:18:41.083Z,18.18
2022-08-28T07:21:12.310Z,18.18
2022-08-28T07:23:42.126Z,18.18
2022-08-28T07:26:12.349Z,18.26
2022-08-28T07:28:38.860Z,18.46
2022-08-28T07:31:13.432Z,18.56
2022-08-28T07:33:41.246Z,18.63
2022-08-28T07:36:15.642Z,18.69
2022-08-28T07:38:43.506Z,18.84
2022-08-28T07:41:16.114Z,19.06
2022-08-28T07:44:01.560Z,19.23
2022-08-28T07:46:29.236Z,19.28
2022-08-28T07:48:58.783Z,19.48
2022-08-28T07:51:26.910Z,19.48
2022-08-28T07:53:54.926Z,19.80
2022-08-28T07:56:21.538Z,19.95
2022-08-28T07:58:48.483Z,20.01
2022-08-28T08:01:17.390Z,20.09
2022-08-28T08:03:44.723Z,20.21
2022-08-28T08:06:13.307Z,20.35
2022-08-28T08:08:41.094Z,20.44
2022-08-28T08:11:16.581Z,20.47
2022-08-28T08:13:43.939Z,20.72
2022-08-28T08:16:14.809Z,20.76
2022-08-28T08:18:43.581Z,20.90
2022-08-28T08:21:13.251Z,21.25
2022-08-28T08:23:40.481Z,21.29
2022-08-28T08:26:13.634Z,21.54
2022-08-28T08:28:42.409Z,21.12
2022-08-28T08:31:24.647Z,21.28
2022-08-28T08:33:54.896Z,21.48
2022-08-28T08:36:23.094Z,21.42
2022-08-28T08:38:50.522Z,21.58
2022-08-28T08:41:34.786Z,21.82
2022-08-28T08:44:22.340Z,21.83
2022-08-28T08:47:14.038Z,21.80
2022-08-28T08:49:48.259Z,21.63
2022-08-28T08:52:21.571Z,21.54
2022-08-28T08:55:21.792Z,21.76
2022-08-28T08:58:04.443Z,21.85
2022-08-28T09:00:37.208Z,21.78
2022-08-28T09:03:09.550Z,21.84
2022-08-28T09:05:45.197Z,21.79
2022-08-28T09:08:25.657Z,21.60
2022-08-28T09:11:01.289Z,21.68
2022-08-28T09:13:52.310Z,21.92
2022-08-28T09:16:41.177Z,22.27
2022-08-28T09:19:10.949Z,22.43
2022-08-28T09:21:43.172Z,22.46
2022-08-28T09:24:32.290Z,22.39
2022-08-28T09:27:01.691Z,22.65
2022-08-28T09:29:38.426Z,22.20
2022-08-28T09:32:31.938Z,22.72
2022-08-28T09:35:03.582Z,23.11
2022-08-28T09:37:34.063Z,23.59
2022-08-28T09:40:23.755Z,22.75
2022-08-28T09:43:18.414Z,22.82
2022-08-28T09:45:51.523Z,23.03
2022-08-28T09:48:22.162Z,22.63
2022-08-28T09:50:59.033Z,23.09
2022-08-28T09:53:28.492Z,23.49
2022-08-28T09:56:24.425Z,23.73
2022-08-28T09:58:55.832Z,24.09
2022-08-28T10:01:50.102Z,24.39
2022-08-28T10:04:40.781Z,24.66
2022-08-28T10:07:29.123Z,24.73
2022-08-28T10:10:22.322Z,24.70
2022-08-28T10:13:09.550Z,24.57
2022-08-28T10:16:02.187Z,24.28
2022-08-28T10:18:31.779Z,23.99
2022-08-28T10:21:15.385Z,24.12
2022-08-28T10:24:10.035Z,24.57
2022-08-28T10:27:00.104Z,24.94
2022-08-28T10:29:26.649Z,24.53
2022-08-28T10:32:03.058Z,23.29
2022-08-28T10:35:06.051Z,22.98
2022-08-28T10:37:35.319Z,23.98
2022-08-28T10:40:11.525Z,23.67
2022-08-28T10:42:46.884Z,23.77
2022-08-28T10:45:21.624Z,22.73
2022-08-28T10:47:56.790Z,24.08
2022-08-28T10:50:32.742Z,25.00
2022-08-28T10:53:06.472Z,25.83
2022-08-28T10:55:56.542Z,25.93
2022-08-28T10:58:27.072Z,26.16
2022-08-28T11:00:56.943Z,26.26
2022-08-28T11:03:35.437Z,26.19
2022-08-28T11:06:11.309Z,25.94
2022-08-28T11:08:39.646Z,25.41
2022-08-28T11:11:13.407Z,24.92
2022-08-28T11:13:52.485Z,25.21
2022-08-28T11:16:29.666Z,25.80
2022-08-28T11:19:11.982Z,26.41
2022-08-28T11:21:47.562Z,26.54
2022-08-28T11:24:28.170Z,26.77
2022-08-28T11:27:19.396Z,26.32
2022-08-28T11:30:04.269Z,26.62
2022-08-28T11:32:51.964Z,26.48
2022-08-28T11:35:30.874Z,26.37
2022-08-28T11:37:58.403Z,26.64
2022-08-28T11:40:31.772Z,27.01
2022-08-28T11:43:15.916Z,27.14
2022-08-28T11:45:46.635Z,27.03
2022-08-28T11:48:37.826Z,27.42
2022-08-28T11:51:27.905Z,27.53
2022-08-28T11:54:16.369Z,27.78
2022-08-28T11:57:01.357Z,27.80
2022-08-28T11:59:49.249Z,27.97
2022-08-28T12:02:35.577Z,27.85
2022-08-28T12:05:07.643Z,26.24
2022-08-28T12:07:36.947Z,26.31
2022-08-28T12:10:24.366Z,26.70
2022-08-28T12:12:58.426Z,27.09
2022-08-28T12:15:28.027Z,28.20
2022-08-28T12:18:06.732Z,28.80
2022-08-28T12:20:41.389Z,29.35
2022-08-28T12:23:29.437Z,29.41
2022-08-28T12:26:21.221Z,28.93
2022-08-28T12:28:53.197Z,28.77
2022-08-28T12:31:48.859Z,28.64
2022-08-28T12:35:00.077Z,28.99
2022-08-28T12:37:35.760Z,28.47
2022-08-28T12:40:13.843Z,29.07
2022-08-28T12:42:55.004Z,29.29
2022-08-28T12:45:30.157Z,29.39
2022-08-28T12:48:01.980Z,29.97
2022-08-28T12:50:36.202Z,30.00
2022-08-28T12:53:10.398Z,30.09
2022-08-28T12:55:38.233Z,30.23
2022-08-28T12:58:12.852Z,30.62
2022-08-28T13:00:50.464Z,30.43
2022-08-28T13:03:16.994Z,31.06
2022-08-28T13:05:43.955Z,31.87
2022-08-28T13:08:12.582Z,32.81
2022-08-28T13:10:49.409Z,34.82
2022-08-28T13:13:32.766Z,36.62
2022-08-28T13:16:01.612Z,37.03
2022-08-28T13:18:52.198Z,34.86
2022-08-28T13:21:34.023Z,34.20
2022-08-28T13:24:27.346Z,33.11
2022-08-28T13:27:04.523Z,31.75
2022-08-28T13:29:31.853Z,31.81
2022-08-28T13:32:17.910Z,32.39
2022-08-28T13:35:06.080Z,32.57
2022-08-28T13:37:47.834Z,32.30
2022-08-28T13:40:45.909Z,32.61
2022-08-28T13:43:07.089Z,31.70
2022-08-28T13:45:42.358Z,30.64
2022-08-28T13:48:11.133Z,28.82
2022-08-28T13:50:40.029Z,28.59
2022-08-28T13:53:06.725Z,28.99
2022-08-28T13:55:33.689Z,29.86
2022-08-28T13:58:00.244Z,31.99
2022-08-28T14:00:30.204Z,33.08
2022-08-28T14:03:15.725Z,32.93
2022-08-28T14:05:43.278Z,33.20
2022-08-28T14:08:10.066Z,33.35
2022-08-28T14:10:36.719Z,32.25
2022-08-28T14:13:03.227Z,31.56
2022-08-28T14:15:29.748Z,31.15
2022-08-28T14:17:56.608Z,31.42
2022-08-28T14:20:23.214Z,31.38
2022-08-28T14:22:49.722Z,31.37
2022-08-28T14:25:16.427Z,31.48
2022-08-28T14:27:42.995Z,31.40
2022-08-28T14:30:10.269Z,31.08
2022-08-28T14:32:38.148Z,30.44
2022-08-28T14:35:05.516Z,29.94
2022-08-28T14:37:32.422Z,29.65
2022-08-28T14:39:59.156Z,29.52
2022-08-28T14:42:26.846Z,29.50
2022-08-28T14:44:53.934Z,29.56
2022-08-28T14:47:20.667Z,29.50
2022-08-28T14:49:47.340Z,29.30
2022-08-28T14:52:13.917Z,29.02
2022-08-28T14:54:40.725Z,29.49
2022-08-28T14:57:07.291Z,29.08
2022-08-28T14:59:34.047Z,29.33
2022-08-28T15:02:01.785Z,29.10
2022-08-28T15:04:35.353Z,28.93
2022-08-28T15:07:06.395Z,28.71
2022-08-28T15:09:36.750Z,28.60
2022-08-28T15:12:03.582Z,28.97
2022-08-28T15:14:30.533Z,28.99
2022-08-28T15:16:57.323Z,28.79
2022-08-28T15:19:24.104Z,28.71
2022-08-28T15:21:53.725Z,28.71
2022-08-28T15:24:22.891Z,28.48
2022-08-28T15:26:49.486Z,28.43
2022-08-28T15:29:16.625Z,28.34
2022-08-28T15:31:48.054Z,28.31
2022-08-28T15:34:21.704Z,27.93
2022-08-28T15:36:55.125Z,28.01
2022-08-28T15:39:43.734Z,28.05
2022-08-28T15:42:11.386Z,27.80
2022-08-28T15:44:37.927Z,27.92
2022-08-28T15:47:07.654Z,27.83
2022-08-28T15:49:46.923Z,27.78
2022-08-28T15:52:18.250Z,27.60
2022-08-28T15:54:44.809Z,27.44
2022-08-28T15:57:11.462Z,27.52
2022-08-28T15:59:49.394Z,27.54
2022-08-28T16:02:18.082Z,27.39
2022-08-28T16:04:44.712Z,27.39
2022-08-28T16:07:11.283Z,27.39
2022-08-28T16:09:37.881Z,27.33
2022-08-28T16:12:05.219Z,27.10
2022-08-28T16:14:34.652Z,27.20
2022-08-28T16:17:05.554Z,27.54
2022-08-28T16:19:32.751Z,27.56
2022-08-28T16:21:59.270Z,27.87
2022-08-28T16:24:25.826Z,28.37
2022-08-28T16:26:52.373Z,29.11
2022-08-28T16:29:18.943Z,29.47
2022-08-28T16:31:47.968Z,29.77
2022-08-28T16:34:15.753Z,28.74
2022-08-28T16:36:48.231Z,28.26
2022-08-28T16:39:15.131Z,28.14
2022-08-28T16:41:43.174Z,28.32
2022-08-28T16:44:09.856Z,28.52
2022-08-28T16:46:36.391Z,29.02
2022-08-28T16:49:03.857Z,29.22
2022-08-28T16:51:30.405Z,29.32
2022-08-28T16:53:56.971Z,29.32
2022-08-28T16:56:24.984Z,29.13
2022-08-28T16:58:53.228Z,29.09
2022-08-28T17:01:21.539Z,29.13
2022-08-28T17:03:52.445Z,28.91
2022-08-28T17:06:29.386Z,28.71
2022-08-28T17:08:57.367Z,28.24
2022-08-28T17:11:26.065Z,27.71
2022-08-28T17:13:52.647Z,27.56
2022-08-28T17:16:20.484Z,27.83
2022-08-28T17:18:52.417Z,27.86
2022-08-28T17:21:38.331Z,27.80
2022-08-28T17:24:05.163Z,28.07
2022-08-28T17:26:31.654Z,28.16
2022-08-28T17:28:58.267Z,28.17
2022-08-28T17:31:24.933Z,27.83
2022-08-28T17:33:51.597Z,27.73
2022-08-28T17:36:32.638Z,27.43
2022-08-28T17:39:05.613Z,27.38
2022-08-28T17:41:33.443Z,27.26
2022-08-28T17:44:01.485Z,27.22
2022-08-28T17:46:28.528Z,26.90
2022-08-28T17:48:56.197Z,26.87
2022-08-28T17:51:42.823Z,26.85
2022-08-28T17:54:18.887Z,26.71
2022-08-28T17:56:46.430Z,26.67
2022-08-28T17:59:14.366Z,26.75
2022-08-28T18:01:42.414Z,26.87
2022-08-28T18:04:09.171Z,26.77
2022-08-28T18:06:36.181Z,26.66
2022-08-28T18:09:04.437Z,26.40
2022-08-28T18:11:31.090Z,26.33
2022-08-28T18:13:59.790Z,26.41
2022-08-28T18:16:31.186Z,26.19
2022-08-28T18:18:59.493Z,25.94
2022-08-28T18:21:26.283Z,25.84
2022-08-28T18:23:52.970Z,25.48
2022-08-28T18:26:19.779Z,25.43
2022-08-28T18:28:46.748Z,25.40
2022-08-28T18:31:13.668Z,25.47
2022-08-28T18:33:40.750Z,25.47
2022-08-28T18:36:09.822Z,25.23
2022-08-28T18:38:36.997Z,24.99
2022-08-28T18:41:05.150Z,25.26
2022-08-28T18:43:32.130Z,25.14
2022-08-28T18:45:59.787Z,25.09
2022-08-28T18:48:26.418Z,25.17
2022-08-28T18:50:52.923Z,25.17
2022-08-28T18:53:21.666Z,24.93
2022-08-28T18:55:51.086Z,24.53
2022-08-28T18:58:19.429Z,24.52
2022-08-28T19:00:45.936Z,24.44
2022-08-28T19:03:12.547Z,24.50
2022-08-28T19:05:39.566Z,24.46
2022-08-28T19:08:06.354Z,24.78
2022-08-28T19:10:34.850Z,24.58
2022-08-28T19:13:03.256Z,24.44
2022-08-28T19:15:31.311Z,24.39
2022-08-28T19:18:00.278Z,24.33
2022-08-28T19:20:28.263Z,24.28
2022-08-28T19:22:58.706Z,24.31
2022-08-28T19:25:29.243Z,24.33
2022-08-28T19:27:59.018Z,24.23
2022-08-28T19:30:27.085Z,24.44
2022-08-28T19:32:53.842Z,24.24
2022-08-28T19:35:24.215Z,24.10
2022-08-28T19:37:54.363Z,24.01
2022-08-28T19:40:21.786Z,23.88
2022-08-28T19:42:49.816Z,23.86
2022-08-28T19:45:16.840Z,23.78
2022-08-28T19:47:43.359Z,23.85
2022-08-28T19:50:12.205Z,23.89
2022-08-28T19:52:39.920Z,23.90
2022-08-28T19:55:07.499Z,23.73
2022-08-28T19:57:34.860Z,23.65
2022-08-28T20:00:02.153Z,23.48
2022-08-28T20:02:29.564Z,23.53
2022-08-28T20:04:56.367Z,23.57
2022-08-28T20:07:25.011Z,23.61
2022-08-28T20:09:52.199Z,23.48
2022-08-28T20:12:19.567Z,23.41
2022-08-28T20:14:46.704Z,23.32
2022-08-28T20:17:14.082Z,23.52
2022-08-28T20:19:41.254Z,23.41
2022-08-28T20:22:07.986Z,23.43
2022-08-28T20:24:34.950Z,23.41
2022-08-28T20:27:01.465Z,23.23
2022-08-28T20:29:28.110Z,23.62
2022-08-28T20:31:54.633Z,23.79
2022-08-28T20:34:21.510Z,23.92
2022-08-28T20:36:48.962Z,23.99
2022-08-28T20:39:16.267Z,23.98
2022-08-28T20:41:44.424Z,24.00
2022-08-28T20:44:13.486Z,23.96
2022-08-28T20:46:42.191Z,23.87
2022-08-28T20:49:14.115Z,23.81
2022-08-28T20:51:56.575Z,23.56
2022-08-28T20:54:26.312Z,23.56
2022-08-28T20:56:54.167Z,23.44
2022-08-28T20:59:22.043Z,23.36
2022-08-28T21:01:52.122Z,23.42
2022-08-28T21:04:19.553Z,23.09
2022-08-28T21:06:48.992Z,23.11
2022-08-28T21:09:16.369Z,22.97
2022-08-28T21:11:44.021Z,23.07
2022-08-28T21:14:11.092Z,22.90
2022-08-28T21:16:39.680Z,22.81
2022-08-28T21:19:15.653Z,22.91
2022-08-28T21:21:44.156Z,22.64
2022-08-28T21:24:12.982Z,22.64
2022-08-28T21:26:49.119Z,22.80
2022-08-28T21:29:19.690Z,22.73
2022-08-28T21:31:48.299Z,22.71
2022-08-28T21:34:15.479Z,22.61
2022-08-28T21:36:50.138Z,22.61
2022-08-28T21:39:20.628Z,22.54
2022-08-28T21:41:47.980Z,22.74
2022-08-28T21:44:14.705Z,22.55
2022-08-28T21:46:41.325Z,22.66
2022-08-28T21:49:08.034Z,22.64
2022-08-28T21:51:34.625Z,22.41
2022-08-28T21:54:01.261Z,22.41
2022-08-28T21:56:28.933Z,22.44
2022-08-28T21:58:56.552Z,22.58
2022-08-28T22:01:25.949Z,22.43
2022-08-28T22:03:54.294Z,22.58
2022-08-28T22:06:23.152Z,22.29
2022-08-28T22:08:51.171Z,22.30
2022-08-28T22:11:21.023Z,22.39
2022-08-28T22:13:51.639Z,22.27
2022-08-28T22:16:18.318Z,22.02
2022-08-28T22:18:44.896Z,22.14
2022-08-28T22:21:35.329Z,22.19
2022-08-28T22:24:02.104Z,22.21
2022-08-28T22:26:29.366Z,22.10
2022-08-28T22:28:56.250Z,21.92
2022-08-28T22:31:23.300Z,21.82
2022-08-28T22:33:50.463Z,21.76
2022-08-28T22:36:17.514Z,21.72
2022-08-28T22:38:45.687Z,21.57
2022-08-28T22:41:20.285Z,21.46
2022-08-28T22:43:48.307Z,21.46
2022-08-28T22:46:18.771Z,21.48
2022-08-28T22:48:46.095Z,21.50
2022-08-28T22:51:15.567Z,21.42
2022-08-28T22:53:43.798Z,21.31
2022-08-28T22:56:11.551Z,21.32
2022-08-28T22:58:38.669Z,21.38
2022-08-28T23:01:11.160Z,21.30
2022-08-28T23:03:39.644Z,21.41
2022-08-28T23:06:06.790Z,21.26
2022-08-28T23:08:34.165Z,21.33
2022-08-28T23:11:01.277Z,21.26
2022-08-28T23:13:29.576Z,21.28
2022-08-28T23:15:56.781Z,21.20
2022-08-28T23:18:23.297Z,21.16
2022-08-28T23:20:50.738Z,21.17
2022-08-28T23:23:19.084Z,21.13
2022-08-28T23:25:45.909Z,21.14
2022-08-28T23:28:12.853Z,21.10
2022-08-28T23:30:43.923Z,21.12
2022-08-28T23:33:23.275Z,21.18
2022-08-28T23:35:51.357Z,21.17
2022-08-28T23:38:18.207Z,21.13
2022-08-28T23:40:44.847Z,21.06
2022-08-28T23:43:11.960Z,21.09
2022-08-28T23:45:40.583Z,21.09
2022-08-28T23:48:07.797Z,21.16
2022-08-28T23:50:35.793Z,21.13
2022-08-28T23:53:03.905Z,21.02
2022-08-28T23:55:30.983Z,21.03
2022-08-28T23:58:00.202Z,21.08
